sensor_id;sensor_type;location;lat;lon;timestamp;temperature;humidity
65568;DHT22;52211;50.154;8.682;2022-09-09T00:02:08;20.00;57.30
65568;DHT22;52211;50.154;8.682;2022-09-09T00:07:55;19.90;57.20
65568;DHT22;52211;50.154;8.682;2022-09-09T00:10:37;19.90;57.80
65568;DHT22;52211;50.154;8.682;2022-09-09T00:13:15;19.90;57.70
65568;DHT22;52211;50.154;8.682;2022-09-09T00:19:00;19.90;57.30
65568;DHT22;52211;50.154;8.682;2022-09-09T00:21:38;19.90;57.60
65568;DHT22;52211;50.154;8.682;2022-09-09T00:24:26;19.90;57.50
65568;DHT22;52211;50.154;8.682;2022-09-09T00:27:08;19.90;57.60
65568;DHT22;52211;50.154;8.682;2022-09-09T00:32:53;19.90;57.60
65568;DHT22;52211;50.154;8.682;2022-09-09T00:35:29;19.80;57.40
65568;DHT22;52211;50.154;8.682;2022-09-09T00:40:52;19.70;57.60
65568;DHT22;52211;50.154;8.682;2022-09-09T00:43:29;19.70;57.80
65568;DHT22;52211;50.154;8.682;2022-09-09T00:55:14;19.60;57.80
65568;DHT22;52211;50.154;8.682;2022-09-09T00:57:49;19.60;57.90
65568;DHT22;52211;50.154;8.682;2022-09-09T01:00:39;19.50;57.70
65568;DHT22;52211;50.154;8.682;2022-09-09T01:03:25;19.60;58.00
65568;DHT22;52211;50.154;8.682;2022-09-09T01:06:16;19.50;57.80
65568;DHT22;52211;50.154;8.682;2022-09-09T01:09:21;19.50;58.20
65568;DHT22;52211;50.154;8.682;2022-09-09T01:29:17;19.30;58.50
65568;DHT22;52211;50.154;8.682;2022-09-09T01:32:35;19.30;58.40
65568;DHT22;52211;50.154;8.682;2022-09-09T01:35:04;19.30;58.80
65568;DHT22;52211;50.154;8.682;2022-09-09T01:37:38;19.30;58.40
65568;DHT22;52211;50.154;8.682;2022-09-09T01:40:05;19.20;58.40
65568;DHT22;52211;50.154;8.682;2022-09-09T01:42:33;19.30;58.60
65568;DHT22;52211;50.154;8.682;2022-09-09T01:45:05;19.20;58.60
65568;DHT22;52211;50.154;8.682;2022-09-09T01:47:33;19.20;58.70
65568;DHT22;52211;50.154;8.682;2022-09-09T01:50:01;19.20;58.70
65568;DHT22;52211;50.154;8.682;2022-09-09T01:52:33;19.20;58.80
65568;DHT22;52211;50.154;8.682;2022-09-09T01:55:05;19.20;59.10
65568;DHT22;52211;50.154;8.682;2022-09-09T01:57:56;19.20;59.00
65568;DHT22;52211;50.154;8.682;2022-09-09T02:00:47;19.20;59.20
65568;DHT22;52211;50.154;8.682;2022-09-09T02:03:32;19.20;59.20
65568;DHT22;52211;50.154;8.682;2022-09-09T02:06:08;19.20;59.40
65568;DHT22;52211;50.154;8.682;2022-09-09T02:09:04;19.10;58.90
65568;DHT22;52211;50.154;8.682;2022-09-09T02:11:35;19.20;59.20
65568;DHT22;52211;50.154;8.682;2022-09-09T02:14:13;19.10;59.00
65568;DHT22;52211;50.154;8.682;2022-09-09T02:16:50;19.10;60.10
65568;DHT22;52211;50.154;8.682;2022-09-09T02:19:25;19.10;59.40
65568;DHT22;52211;50.154;8.682;2022-09-09T02:21:59;19.10;59.40
65568;DHT22;52211;50.154;8.682;2022-09-09T02:24:29;19.10;59.50
65568;DHT22;52211;50.154;8.682;2022-09-09T02:27:07;19.10;59.60
65568;DHT22;52211;50.154;8.682;2022-09-09T02:29:44;19.10;59.80
65568;DHT22;52211;50.154;8.682;2022-09-09T02:32:22;19.10;59.70
65568;DHT22;52211;50.154;8.682;2022-09-09T02:34:57;19.20;60.00
65568;DHT22;52211;50.154;8.682;2022-09-09T02:37:37;19.10;59.70
65568;DHT22;52211;50.154;8.682;2022-09-09T02:40:10;19.10;59.70
65568;DHT22;52211;50.154;8.682;2022-09-09T02:42:43;19.10;59.90
65568;DHT22;52211;50.154;8.682;2022-09-09T02:45:20;19.10;59.70
65568;DHT22;52211;50.154;8.682;2022-09-09T02:53:59;19.20;60.30
65568;DHT22;52211;50.154;8.682;2022-09-09T02:56:40;19.20;60.10
65568;DHT22;52211;50.154;8.682;2022-09-09T02:59:11;19.20;60.10
65568;DHT22;52211;50.154;8.682;2022-09-09T03:01:40;19.20;60.00
65568;DHT22;52211;50.154;8.682;2022-09-09T03:04:10;19.20;60.00
65568;DHT22;52211;50.154;8.682;2022-09-09T03:06:37;19.20;60.10
65568;DHT22;52211;50.154;8.682;2022-09-09T03:09:06;19.20;60.20
65568;DHT22;52211;50.154;8.682;2022-09-09T03:11:36;19.20;60.20
65568;DHT22;52211;50.154;8.682;2022-09-09T03:14:04;19.20;60.20
65568;DHT22;52211;50.154;8.682;2022-09-09T03:16:32;19.20;60.20
65568;DHT22;52211;50.154;8.682;2022-09-09T03:19:01;19.20;60.20
65568;DHT22;52211;50.154;8.682;2022-09-09T03:21:28;19.20;60.20
65568;DHT22;52211;50.154;8.682;2022-09-09T03:23:57;19.20;60.20
65568;DHT22;52211;50.154;8.682;2022-09-09T03:26:24;19.20;60.20
65568;DHT22;52211;50.154;8.682;2022-09-09T03:28:51;19.20;60.30
65568;DHT22;52211;50.154;8.682;2022-09-09T03:31:24;19.20;60.30
65568;DHT22;52211;50.154;8.682;2022-09-09T03:33:59;19.20;60.40
65568;DHT22;52211;50.154;8.682;2022-09-09T03:36:26;19.20;60.50
65568;DHT22;52211;50.154;8.682;2022-09-09T03:38:55;19.30;60.50
65568;DHT22;52211;50.154;8.682;2022-09-09T03:41:22;19.20;60.40
65568;DHT22;52211;50.154;8.682;2022-09-09T03:43:53;19.20;60.40
65568;DHT22;52211;50.154;8.682;2022-09-09T03:46:22;19.20;60.40
65568;DHT22;52211;50.154;8.682;2022-09-09T03:48:51;19.20;60.50
65568;DHT22;52211;50.154;8.682;2022-09-09T03:51:23;19.20;60.50
65568;DHT22;52211;50.154;8.682;2022-09-09T03:53:55;19.20;60.60
65568;DHT22;52211;50.154;8.682;2022-09-09T03:56:26;19.20;60.60
65568;DHT22;52211;50.154;8.682;2022-09-09T03:58:53;19.20;60.80
65568;DHT22;52211;50.154;8.682;2022-09-09T04:01:23;19.20;60.70
65568;DHT22;52211;50.154;8.682;2022-09-09T04:03:50;19.20;60.70
65568;DHT22;52211;50.154;8.682;2022-09-09T04:06:17;19.20;60.70
65568;DHT22;52211;50.154;8.682;2022-09-09T04:08:44;19.20;60.70
65568;DHT22;52211;50.154;8.682;2022-09-09T04:11:11;19.20;60.70
65568;DHT22;52211;50.154;8.682;2022-09-09T04:13:38;19.30;60.80
65568;DHT22;52211;50.154;8.682;2022-09-09T04:16:11;19.30;60.80
65568;DHT22;52211;50.154;8.682;2022-09-09T04:18:44;19.20;60.80
65568;DHT22;52211;50.154;8.682;2022-09-09T04:21:12;19.30;60.80
65568;DHT22;52211;50.154;8.682;2022-09-09T04:23:39;19.20;60.70
65568;DHT22;52211;50.154;8.682;2022-09-09T04:26:08;19.20;60.70
65568;DHT22;52211;50.154;8.682;2022-09-09T04:28:37;19.20;60.80
65568;DHT22;52211;50.154;8.682;2022-09-09T04:31:07;19.20;60.80
65568;DHT22;52211;50.154;8.682;2022-09-09T04:33:38;19.20;60.90
65568;DHT22;52211;50.154;8.682;2022-09-09T04:36:06;19.20;60.90
65568;DHT22;52211;50.154;8.682;2022-09-09T04:38:37;19.20;61.00
65568;DHT22;52211;50.154;8.682;2022-09-09T04:41:06;19.20;61.10
65568;DHT22;52211;50.154;8.682;2022-09-09T04:43:37;19.20;61.10
65568;DHT22;52211;50.154;8.682;2022-09-09T04:46:09;19.20;61.10
65568;DHT22;52211;50.154;8.682;2022-09-09T04:48:36;19.30;61.30
65568;DHT22;52211;50.154;8.682;2022-09-09T04:51:05;19.20;61.10
65568;DHT22;52211;50.154;8.682;2022-09-09T04:53:37;19.20;61.20
65568;DHT22;52211;50.154;8.682;2022-09-09T04:56:14;19.20;61.20
65568;DHT22;52211;50.154;8.682;2022-09-09T04:58:42;19.30;61.50
65568;DHT22;52211;50.154;8.682;2022-09-09T05:01:20;19.20;61.20
65568;DHT22;52211;50.154;8.682;2022-09-09T05:03:51;19.30;61.50
65568;DHT22;52211;50.154;8.682;2022-09-09T05:06:23;19.20;61.20
65568;DHT22;52211;50.154;8.682;2022-09-09T05:08:50;19.20;61.20
65568;DHT22;52211;50.154;8.682;2022-09-09T05:11:25;19.20;61.20
65568;DHT22;52211;50.154;8.682;2022-09-09T05:13:54;19.20;61.30
65568;DHT22;52211;50.154;8.682;2022-09-09T05:16:26;19.20;61.30
65568;DHT22;52211;50.154;8.682;2022-09-09T05:18:56;19.20;61.40
65568;DHT22;52211;50.154;8.682;2022-09-09T05:21:24;19.20;61.30
65568;DHT22;52211;50.154;8.682;2022-09-09T05:23:54;19.20;61.40
65568;DHT22;52211;50.154;8.682;2022-09-09T05:26:23;19.20;61.40
65568;DHT22;52211;50.154;8.682;2022-09-09T05:28:50;19.20;61.60
65568;DHT22;52211;50.154;8.682;2022-09-09T05:31:20;19.20;61.50
65568;DHT22;52211;50.154;8.682;2022-09-09T05:33:47;19.20;61.60
65568;DHT22;52211;50.154;8.682;2022-09-09T05:36:18;19.20;61.60
65568;DHT22;52211;50.154;8.682;2022-09-09T05:38:48;19.20;61.60
65568;DHT22;52211;50.154;8.682;2022-09-09T05:41:22;19.20;61.60
65568;DHT22;52211;50.154;8.682;2022-09-09T05:43:49;19.20;61.60
65568;DHT22;52211;50.154;8.682;2022-09-09T05:46:19;19.20;61.60
65568;DHT22;52211;50.154;8.682;2022-09-09T05:48:53;19.20;61.70
65568;DHT22;52211;50.154;8.682;2022-09-09T05:51:27;19.30;61.90
65568;DHT22;52211;50.154;8.682;2022-09-09T05:53:56;19.30;61.80
65568;DHT22;52211;50.154;8.682;2022-09-09T05:56:28;19.30;61.80
65568;DHT22;52211;50.154;8.682;2022-09-09T05:59:00;19.30;61.80
65568;DHT22;52211;50.154;8.682;2022-09-09T06:01:32;19.40;61.80
65568;DHT22;52211;50.154;8.682;2022-09-09T06:04:07;19.40;61.80
65568;DHT22;52211;50.154;8.682;2022-09-09T06:06:37;19.40;61.60
65568;DHT22;52211;50.154;8.682;2022-09-09T06:09:09;19.40;61.70
65568;DHT22;52211;50.154;8.682;2022-09-09T06:11:40;19.40;61.70
65568;DHT22;52211;50.154;8.682;2022-09-09T06:14:09;19.40;61.70
65568;DHT22;52211;50.154;8.682;2022-09-09T06:16:38;19.40;61.70
65568;DHT22;52211;50.154;8.682;2022-09-09T06:19:10;19.40;61.80
65568;DHT22;52211;50.154;8.682;2022-09-09T06:21:43;19.50;61.80
65568;DHT22;52211;50.154;8.682;2022-09-09T06:24:18;19.50;61.80
65568;DHT22;52211;50.154;8.682;2022-09-09T06:26:48;19.50;61.80
65568;DHT22;52211;50.154;8.682;2022-09-09T06:29:15;19.50;61.60
65568;DHT22;52211;50.154;8.682;2022-09-09T06:31:44;19.50;61.70
65568;DHT22;52211;50.154;8.682;2022-09-09T06:34:14;19.50;61.70
65568;DHT22;52211;50.154;8.682;2022-09-09T06:36:41;19.50;61.70
65568;DHT22;52211;50.154;8.682;2022-09-09T06:39:12;19.50;61.70
65568;DHT22;52211;50.154;8.682;2022-09-09T06:41:41;19.50;61.70
65568;DHT22;52211;50.154;8.682;2022-09-09T06:44:09;19.50;61.70
65568;DHT22;52211;50.154;8.682;2022-09-09T06:46:38;19.60;61.80
65568;DHT22;52211;50.154;8.682;2022-09-09T06:49:07;19.60;61.80
65568;DHT22;52211;50.154;8.682;2022-09-09T06:51:37;19.60;61.80
65568;DHT22;52211;50.154;8.682;2022-09-09T06:54:11;19.60;61.80
65568;DHT22;52211;50.154;8.682;2022-09-09T06:56:40;19.70;61.80
65568;DHT22;52211;50.154;8.682;2022-09-09T06:59:09;19.80;61.80
65568;DHT22;52211;50.154;8.682;2022-09-09T07:01:41;19.80;61.80
65568;DHT22;52211;50.154;8.682;2022-09-09T07:04:19;19.80;61.70
65568;DHT22;52211;50.154;8.682;2022-09-09T07:06:48;19.90;61.70
65568;DHT22;52211;50.154;8.682;2022-09-09T07:09:16;20.00;61.70
65568;DHT22;52211;50.154;8.682;2022-09-09T07:11:48;20.00;61.60
65568;DHT22;52211;50.154;8.682;2022-09-09T07:14:21;20.00;61.50
65568;DHT22;52211;50.154;8.682;2022-09-09T07:16:51;20.10;61.50
65568;DHT22;52211;50.154;8.682;2022-09-09T07:19:25;20.10;62.00
65568;DHT22;52211;50.154;8.682;2022-09-09T07:21:56;20.20;61.40
65568;DHT22;52211;50.154;8.682;2022-09-09T07:24:23;20.20;61.30
65568;DHT22;52211;50.154;8.682;2022-09-09T07:26:52;20.20;61.20
65568;DHT22;52211;50.154;8.682;2022-09-09T07:29:22;20.20;61.10
65568;DHT22;52211;50.154;8.682;2022-09-09T07:31:53;20.30;61.20
65568;DHT22;52211;50.154;8.682;2022-09-09T07:34:20;20.30;61.10
65568;DHT22;52211;50.154;8.682;2022-09-09T07:36:47;20.30;61.00
65568;DHT22;52211;50.154;8.682;2022-09-09T07:39:19;20.30;61.00
65568;DHT22;52211;50.154;8.682;2022-09-09T07:41:49;20.40;61.10
65568;DHT22;52211;50.154;8.682;2022-09-09T07:44:24;20.40;61.00
65568;DHT22;52211;50.154;8.682;2022-09-09T07:46:54;20.40;60.90
65568;DHT22;52211;50.154;8.682;2022-09-09T07:49:25;20.40;60.80
65568;DHT22;52211;50.154;8.682;2022-09-09T07:52:01;20.40;60.70
65568;DHT22;52211;50.154;8.682;2022-09-09T07:54:30;20.50;60.80
65568;DHT22;52211;50.154;8.682;2022-09-09T07:57:01;20.50;60.70
65568;DHT22;52211;50.154;8.682;2022-09-09T07:59:30;20.50;60.70
65568;DHT22;52211;50.154;8.682;2022-09-09T08:01:56;20.60;60.70
65568;DHT22;52211;50.154;8.682;2022-09-09T08:04:26;20.60;60.60
65568;DHT22;52211;50.154;8.682;2022-09-09T08:06:57;20.60;60.60
65568;DHT22;52211;50.154;8.682;2022-09-09T08:09:27;20.60;60.60
65568;DHT22;52211;50.154;8.682;2022-09-09T08:11:58;20.60;60.50
65568;DHT22;52211;50.154;8.682;2022-09-09T08:14:27;20.60;60.50
65568;DHT22;52211;50.154;8.682;2022-09-09T08:16:56;20.60;60.50
65568;DHT22;52211;50.154;8.682;2022-09-09T08:19:28;20.60;60.60
65568;DHT22;52211;50.154;8.682;2022-09-09T08:21:56;20.70;61.20
65568;DHT22;52211;50.154;8.682;2022-09-09T08:24:25;20.70;60.50
65568;DHT22;52211;50.154;8.682;2022-09-09T08:26:52;20.70;60.50
65568;DHT22;52211;50.154;8.682;2022-09-09T08:29:22;20.80;60.60
65568;DHT22;52211;50.154;8.682;2022-09-09T08:31:55;20.80;60.50
65568;DHT22;52211;50.154;8.682;2022-09-09T08:34:25;20.90;60.60
65568;DHT22;52211;50.154;8.682;2022-09-09T08:36:57;20.90;60.50
65568;DHT22;52211;50.154;8.682;2022-09-09T08:39:24;21.00;60.50
65568;DHT22;52211;50.154;8.682;2022-09-09T08:44:37;21.10;60.30
65568;DHT22;52211;50.154;8.682;2022-09-09T08:47:26;21.20;60.30
65568;DHT22;52211;50.154;8.682;2022-09-09T08:55:48;21.40;60.00
65568;DHT22;52211;50.154;8.682;2022-09-09T08:58:21;21.40;59.80
65568;DHT22;52211;50.154;8.682;2022-09-09T09:09:01;21.60;59.60
65568;DHT22;52211;50.154;8.682;2022-09-09T09:11:39;21.70;59.60
65568;DHT22;52211;50.154;8.682;2022-09-09T09:14:25;21.80;59.30
65568;DHT22;52211;50.154;8.682;2022-09-09T09:17:02;21.80;59.30
65568;DHT22;52211;50.154;8.682;2022-09-09T09:19:33;21.90;59.30
65568;DHT22;52211;50.154;8.682;2022-09-09T09:25:20;22.00;59.00
65568;DHT22;52211;50.154;8.682;2022-09-09T09:27:57;22.00;58.90
65568;DHT22;52211;50.154;8.682;2022-09-09T09:30:34;22.10;58.80
65568;DHT22;52211;50.154;8.682;2022-09-09T09:33:15;22.10;58.70
65568;DHT22;52211;50.154;8.682;2022-09-09T09:35:53;22.20;58.40
65568;DHT22;52211;50.154;8.682;2022-09-09T09:38:26;22.20;58.30
65568;DHT22;52211;50.154;8.682;2022-09-09T09:41:16;22.30;58.20
65568;DHT22;52211;50.154;8.682;2022-09-09T09:43:57;22.30;58.20
65568;DHT22;52211;50.154;8.682;2022-09-09T09:46:25;22.40;58.00
65568;DHT22;52211;50.154;8.682;2022-09-09T09:49:01;22.50;58.00
65568;DHT22;52211;50.154;8.682;2022-09-09T09:51:32;22.50;57.50
65568;DHT22;52211;50.154;8.682;2022-09-09T09:54:22;22.50;57.40
65568;DHT22;52211;50.154;8.682;2022-09-09T09:56:55;22.50;57.10
65568;DHT22;52211;50.154;8.682;2022-09-09T09:59:34;22.50;57.30
65568;DHT22;52211;50.154;8.682;2022-09-09T10:04:46;22.50;57.20
65568;DHT22;52211;50.154;8.682;2022-09-09T10:07:22;22.50;57.50
65568;DHT22;52211;50.154;8.682;2022-09-09T10:09:54;22.60;57.60
65568;DHT22;52211;50.154;8.682;2022-09-09T10:17:59;22.80;57.40
65568;DHT22;52211;50.154;8.682;2022-09-09T10:26:55;23.00;57.50
65568;DHT22;52211;50.154;8.682;2022-09-09T10:52:32;23.40;58.90
65568;DHT22;52211;50.154;8.682;2022-09-09T10:57:46;22.90;58.40
65568;DHT22;52211;50.154;8.682;2022-09-09T11:00:24;22.50;58.20
65568;DHT22;52211;50.154;8.682;2022-09-09T11:03:05;22.20;58.30
65568;DHT22;52211;50.154;8.682;2022-09-09T11:05:47;21.90;59.00
65568;DHT22;52211;50.154;8.682;2022-09-09T11:08:23;21.60;60.10
65568;DHT22;52211;50.154;8.682;2022-09-09T11:11:09;21.40;60.90
65568;DHT22;52211;50.154;8.682;2022-09-09T11:14:13;21.30;62.90
65568;DHT22;52211;50.154;8.682;2022-09-09T11:19:55;21.30;62.10
65568;DHT22;52211;50.154;8.682;2022-09-09T11:22:37;21.40;62.90
65568;DHT22;52211;50.154;8.682;2022-09-09T11:25:19;21.50;64.00
65568;DHT22;52211;50.154;8.682;2022-09-09T11:31:28;21.80;63.60
65568;DHT22;52211;50.154;8.682;2022-09-09T11:40:42;22.40;61.10
65568;DHT22;52211;50.154;8.682;2022-09-09T11:43:14;22.50;60.50
65568;DHT22;52211;50.154;8.682;2022-09-09T11:45:51;22.50;60.20
65568;DHT22;52211;50.154;8.682;2022-09-09T11:48:37;22.50;59.70
65568;DHT22;52211;50.154;8.682;2022-09-09T11:51:10;22.50;59.60
65568;DHT22;52211;50.154;8.682;2022-09-09T11:56:41;22.60;59.80
65568;DHT22;52211;50.154;8.682;2022-09-09T12:01:58;22.80;59.20
65568;DHT22;52211;50.154;8.682;2022-09-09T12:13:17;22.90;58.40
65568;DHT22;52211;50.154;8.682;2022-09-09T12:15:54;22.90;57.90
65568;DHT22;52211;50.154;8.682;2022-09-09T12:18:31;22.90;57.70
65568;DHT22;52211;50.154;8.682;2022-09-09T12:21:19;22.90;57.40
65568;DHT22;52211;50.154;8.682;2022-09-09T12:24:04;22.80;57.00
65568;DHT22;52211;50.154;8.682;2022-09-09T12:26:56;22.80;57.10
65568;DHT22;52211;50.154;8.682;2022-09-09T12:30:01;22.70;56.80
65568;DHT22;52211;50.154;8.682;2022-09-09T12:32:38;22.70;57.20
65568;DHT22;52211;50.154;8.682;2022-09-09T12:35:16;22.70;57.30
65568;DHT22;52211;50.154;8.682;2022-09-09T12:37:58;22.60;57.30
65568;DHT22;52211;50.154;8.682;2022-09-09T12:40:33;22.60;57.10
65568;DHT22;52211;50.154;8.682;2022-09-09T12:43:21;22.70;57.00
65568;DHT22;52211;50.154;8.682;2022-09-09T12:45:51;22.60;56.80
65568;DHT22;52211;50.154;8.682;2022-09-09T12:48:33;22.70;56.70
65568;DHT22;52211;50.154;8.682;2022-09-09T12:51:07;22.70;56.10
65568;DHT22;52211;50.154;8.682;2022-09-09T12:53:47;22.60;56.40
65568;DHT22;52211;50.154;8.682;2022-09-09T12:56:29;22.60;56.50
65568;DHT22;52211;50.154;8.682;2022-09-09T12:58:58;22.50;56.90
65568;DHT22;52211;50.154;8.682;2022-09-09T13:01:33;22.40;56.80
65568;DHT22;52211;50.154;8.682;2022-09-09T13:04:15;22.30;56.70
65568;DHT22;52211;50.154;8.682;2022-09-09T13:06:49;22.10;56.80
65568;DHT22;52211;50.154;8.682;2022-09-09T13:09:18;21.90;57.00
65568;DHT22;52211;50.154;8.682;2022-09-09T13:11:52;21.70;57.30
65568;DHT22;52211;50.154;8.682;2022-09-09T13:14:30;21.60;57.70
65568;DHT22;52211;50.154;8.682;2022-09-09T13:17:02;21.50;58.10
65568;DHT22;52211;50.154;8.682;2022-09-09T13:19:35;21.50;58.70
65568;DHT22;52211;50.154;8.682;2022-09-09T13:22:35;21.50;59.40
65568;DHT22;52211;50.154;8.682;2022-09-09T13:25:17;21.50;60.10
65568;DHT22;52211;50.154;8.682;2022-09-09T13:28:03;21.70;59.80
65568;DHT22;52211;50.154;8.682;2022-09-09T13:30:36;21.90;59.90
65568;DHT22;52211;50.154;8.682;2022-09-09T13:35:58;22.40;59.90
65568;DHT22;52211;50.154;8.682;2022-09-09T13:38:28;22.70;59.40
65568;DHT22;52211;50.154;8.682;2022-09-09T13:43:43;23.40;58.80
65568;DHT22;52211;50.154;8.682;2022-09-09T13:46:39;23.80;58.40
65568;DHT22;52211;50.154;8.682;2022-09-09T13:54:10;25.10;56.20
65568;DHT22;52211;50.154;8.682;2022-09-09T13:56:42;25.40;54.70
65568;DHT22;52211;50.154;8.682;2022-09-09T13:59:13;25.80;54.50
65568;DHT22;52211;50.154;8.682;2022-09-09T14:01:42;26.10;54.10
65568;DHT22;52211;50.154;8.682;2022-09-09T14:04:09;26.40;53.40
65568;DHT22;52211;50.154;8.682;2022-09-09T14:06:39;26.70;52.90
65568;DHT22;52211;50.154;8.682;2022-09-09T14:09:09;26.80;51.70
65568;DHT22;52211;50.154;8.682;2022-09-09T14:11:43;26.90;50.80
65568;DHT22;52211;50.154;8.682;2022-09-09T14:14:16;26.80;50.20
65568;DHT22;52211;50.154;8.682;2022-09-09T14:16:43;26.70;49.50
65568;DHT22;52211;50.154;8.682;2022-09-09T14:19:14;26.50;49.30
65568;DHT22;52211;50.154;8.682;2022-09-09T14:21:44;26.10;49.40
65568;DHT22;52211;50.154;8.682;2022-09-09T14:24:14;25.90;49.40
65568;DHT22;52211;50.154;8.682;2022-09-09T14:26:43;25.50;49.50
65568;DHT22;52211;50.154;8.682;2022-09-09T14:29:10;25.10;49.40
65568;DHT22;52211;50.154;8.682;2022-09-09T14:31:37;24.90;49.50
65568;DHT22;52211;50.154;8.682;2022-09-09T14:34:04;24.60;50.00
65568;DHT22;52211;50.154;8.682;2022-09-09T14:36:30;24.30;50.30
65568;DHT22;52211;50.154;8.682;2022-09-09T14:38:59;24.10;50.80
65568;DHT22;52211;50.154;8.682;2022-09-09T14:41:31;23.80;50.80
65568;DHT22;52211;50.154;8.682;2022-09-09T14:44:01;23.60;51.00
65568;DHT22;52211;50.154;8.682;2022-09-09T14:46:30;23.50;51.30
65568;DHT22;52211;50.154;8.682;2022-09-09T14:49:00;23.30;51.40
65568;DHT22;52211;50.154;8.682;2022-09-09T14:51:26;23.20;51.60
65568;DHT22;52211;50.154;8.682;2022-09-09T14:53:58;23.10;51.80
65568;DHT22;52211;50.154;8.682;2022-09-09T14:56:30;23.00;52.00
65568;DHT22;52211;50.154;8.682;2022-09-09T14:59:03;22.90;52.30
65568;DHT22;52211;50.154;8.682;2022-09-09T15:01:31;22.80;53.40
65568;DHT22;52211;50.154;8.682;2022-09-09T15:04:03;22.80;53.10
65568;DHT22;52211;50.154;8.682;2022-09-09T15:06:35;22.90;53.50
65568;DHT22;52211;50.154;8.682;2022-09-09T15:09:08;23.00;53.60
65568;DHT22;52211;50.154;8.682;2022-09-09T15:11:38;23.10;53.60
65568;DHT22;52211;50.154;8.682;2022-09-09T15:14:07;23.20;53.50
65568;DHT22;52211;50.154;8.682;2022-09-09T15:16:38;23.30;53.20
65568;DHT22;52211;50.154;8.682;2022-09-09T15:19:09;23.40;53.10
65568;DHT22;52211;50.154;8.682;2022-09-09T15:21:37;23.50;53.00
65568;DHT22;52211;50.154;8.682;2022-09-09T15:24:06;23.50;52.90
65568;DHT22;52211;50.154;8.682;2022-09-09T15:26:35;23.60;52.70
65568;DHT22;52211;50.154;8.682;2022-09-09T15:29:05;23.70;52.60
65568;DHT22;52211;50.154;8.682;2022-09-09T15:31:35;23.70;52.60
65568;DHT22;52211;50.154;8.682;2022-09-09T15:34:08;23.80;52.60
65568;DHT22;52211;50.154;8.682;2022-09-09T15:36:44;24.00;52.50
65568;DHT22;52211;50.154;8.682;2022-09-09T15:39:17;24.20;52.60
65568;DHT22;52211;50.154;8.682;2022-09-09T15:41:48;24.50;52.60
65568;DHT22;52211;50.154;8.682;2022-09-09T15:44:18;24.80;52.30
65568;DHT22;52211;50.154;8.682;2022-09-09T15:46:52;25.10;51.30
65568;DHT22;52211;50.154;8.682;2022-09-09T15:49:26;25.20;50.80
65568;DHT22;52211;50.154;8.682;2022-09-09T15:51:55;25.30;50.30
65568;DHT22;52211;50.154;8.682;2022-09-09T15:54:25;25.30;50.20
65568;DHT22;52211;50.154;8.682;2022-09-09T15:56:55;25.20;50.00
65568;DHT22;52211;50.154;8.682;2022-09-09T15:59:27;25.10;49.80
65568;DHT22;52211;50.154;8.682;2022-09-09T16:01:58;24.90;49.40
65568;DHT22;52211;50.154;8.682;2022-09-09T16:04:31;24.70;49.60
65568;DHT22;52211;50.154;8.682;2022-09-09T16:07:04;24.50;49.60
65568;DHT22;52211;50.154;8.682;2022-09-09T16:09:37;24.30;49.70
65568;DHT22;52211;50.154;8.682;2022-09-09T16:12:05;24.10;50.20
65568;DHT22;52211;50.154;8.682;2022-09-09T16:14:39;24.00;50.30
65568;DHT22;52211;50.154;8.682;2022-09-09T16:17:09;23.80;50.50
65568;DHT22;52211;50.154;8.682;2022-09-09T16:19:36;23.60;50.70
65568;DHT22;52211;50.154;8.682;2022-09-09T16:22:05;23.50;50.90
65568;DHT22;52211;50.154;8.682;2022-09-09T16:24:33;23.40;51.10
65568;DHT22;52211;50.154;8.682;2022-09-09T16:27:00;23.20;51.30
65568;DHT22;52211;50.154;8.682;2022-09-09T16:29:27;23.20;51.50
65568;DHT22;52211;50.154;8.682;2022-09-09T16:31:54;23.10;51.60
65568;DHT22;52211;50.154;8.682;2022-09-09T16:34:30;23.00;51.60
65568;DHT22;52211;50.154;8.682;2022-09-09T16:36:57;22.90;51.80
65568;DHT22;52211;50.154;8.682;2022-09-09T16:39:27;22.80;51.90
65568;DHT22;52211;50.154;8.682;2022-09-09T16:41:54;22.70;52.00
65568;DHT22;52211;50.154;8.682;2022-09-09T16:44:21;22.60;52.10
65568;DHT22;52211;50.154;8.682;2022-09-09T16:46:51;22.60;52.30
65568;DHT22;52211;50.154;8.682;2022-09-09T16:49:31;22.50;52.30
65568;DHT22;52211;50.154;8.682;2022-09-09T16:51:59;22.40;52.40
65568;DHT22;52211;50.154;8.682;2022-09-09T16:54:26;22.40;52.50
65568;DHT22;52211;50.154;8.682;2022-09-09T16:56:56;22.30;52.50
65568;DHT22;52211;50.154;8.682;2022-09-09T16:59:25;22.20;52.60
65568;DHT22;52211;50.154;8.682;2022-09-09T17:01:52;22.20;52.60
65568;DHT22;52211;50.154;8.682;2022-09-09T17:04:26;22.10;52.70
65568;DHT22;52211;50.154;8.682;2022-09-09T17:06:54;22.10;52.80
65568;DHT22;52211;50.154;8.682;2022-09-09T17:09:25;22.10;52.90
65568;DHT22;52211;50.154;8.682;2022-09-09T17:11:58;22.00;52.90
65568;DHT22;52211;50.154;8.682;2022-09-09T17:14:25;22.00;53.00
65568;DHT22;52211;50.154;8.682;2022-09-09T17:16:54;21.90;53.10
65568;DHT22;52211;50.154;8.682;2022-09-09T17:19:20;21.90;53.20
65568;DHT22;52211;50.154;8.682;2022-09-09T17:21:55;21.80;53.30
65568;DHT22;52211;50.154;8.682;2022-09-09T17:24:42;21.80;53.40
65568;DHT22;52211;50.154;8.682;2022-09-09T17:27:12;21.80;53.50
65568;DHT22;52211;50.154;8.682;2022-09-09T17:29:45;21.70;53.60
65568;DHT22;52211;50.154;8.682;2022-09-09T17:32:12;21.70;53.70
65568;DHT22;52211;50.154;8.682;2022-09-09T17:34:42;21.60;53.70
65568;DHT22;52211;50.154;8.682;2022-09-09T17:37:20;21.60;53.80
65568;DHT22;52211;50.154;8.682;2022-09-09T17:39:50;21.60;53.90
65568;DHT22;52211;50.154;8.682;2022-09-09T17:42:20;21.60;54.00
65568;DHT22;52211;50.154;8.682;2022-09-09T17:44:49;21.50;54.00
65568;DHT22;52211;50.154;8.682;2022-09-09T17:47:16;21.50;54.10
65568;DHT22;52211;50.154;8.682;2022-09-09T17:49:43;21.50;54.20
65568;DHT22;52211;50.154;8.682;2022-09-09T17:52:25;21.50;54.30
65568;DHT22;52211;50.154;8.682;2022-09-09T17:54:58;21.40;54.30
65568;DHT22;52211;50.154;8.682;2022-09-09T17:57:26;21.40;54.30
65568;DHT22;52211;50.154;8.682;2022-09-09T17:59:54;21.40;54.40
65568;DHT22;52211;50.154;8.682;2022-09-09T18:02:25;21.40;54.40
65568;DHT22;52211;50.154;8.682;2022-09-09T18:04:52;21.40;54.50
65568;DHT22;52211;50.154;8.682;2022-09-09T18:07:19;21.30;54.50
65568;DHT22;52211;50.154;8.682;2022-09-09T18:09:55;21.30;54.60
65568;DHT22;52211;50.154;8.682;2022-09-09T18:12:29;21.30;54.60
65568;DHT22;52211;50.154;8.682;2022-09-09T18:14:56;21.20;54.50
65568;DHT22;52211;50.154;8.682;2022-09-09T18:17:29;21.20;54.60
65568;DHT22;52211;50.154;8.682;2022-09-09T18:19:57;21.20;54.60
65568;DHT22;52211;50.154;8.682;2022-09-09T18:22:29;21.20;54.60
65568;DHT22;52211;50.154;8.682;2022-09-09T18:24:58;21.10;54.70
65568;DHT22;52211;50.154;8.682;2022-09-09T18:27:27;21.10;54.70
65568;DHT22;52211;50.154;8.682;2022-09-09T18:29:54;21.00;54.90